createdAt,value
2017-10-19T00:02:16.314Z,4.10
2017-10-19T00:04:42.582Z,4.10
2017-10-19T00:07:09.600Z,4.10
2017-10-19T00:09:35.829Z,4.00
2017-10-19T00:12:02.108Z,4.00
2017-10-19T00:14:28.292Z,3.90
2017-10-19T00:16:54.812Z,3.90
2017-10-19T00:19:21.042Z,3.90
2017-10-19T00:21:47.226Z,3.90
2017-10-19T00:24:13.428Z,3.90
2017-10-19T00:26:40.463Z,3.90
2017-10-19T00:29:06.715Z,3.80
2017-10-19T00:31:32.884Z,3.90
2017-10-19T00:33:59.112Z,3.90
2017-10-19T00:36:25.376Z,3.80
2017-10-19T00:38:52.388Z,3.80
2017-10-19T00:41:18.698Z,3.80
2017-10-19T00:43:44.904Z,3.70
2017-10-19T00:46:11.079Z,3.80
2017-10-19T00:48:37.308Z,3.80
2017-10-19T00:51:03.458Z,3.80
2017-10-19T00:53:30.648Z,3.70
2017-10-19T00:55:56.876Z,3.70
2017-10-19T00:58:23.115Z,3.70
2017-10-19T01:00:49.775Z,3.70
2017-10-19T01:03:15.953Z,3.60
2017-10-19T01:05:42.123Z,3.60
2017-10-19T01:08:08.754Z,3.60
2017-10-19T01:10:35.078Z,3.60
2017-10-19T01:13:01.306Z,3.60
2017-10-19T01:15:27.518Z,3.60
2017-10-19T01:17:53.795Z,3.50
2017-10-19T01:20:20.761Z,3.50
2017-10-19T01:22:46.902Z,3.50
2017-10-19T01:25:13.106Z,3.50
2017-10-19T01:27:40.177Z,3.50
2017-10-19T01:30:06.386Z,3.50
2017-10-19T01:32:32.744Z,3.50
2017-10-19T01:34:58.903Z,3.50
2017-10-19T01:37:25.502Z,3.50
2017-10-19T01:39:52.489Z,3.50
2017-10-19T01:42:19.399Z,3.40
2017-10-19T01:44:45.721Z,3.40
2017-10-19T01:47:11.850Z,3.50
2017-10-19T01:49:50.504Z,3.50
2017-10-19T01:52:16.776Z,3.50
2017-10-19T01:54:42.951Z,3.50
2017-10-19T01:57:09.346Z,3.50
2017-10-19T01:59:35.490Z,3.50
2017-10-19T02:02:01.630Z,3.50
2017-10-19T02:04:27.825Z,3.50
2017-10-19T02:06:54.037Z,3.50
2017-10-19T02:09:20.234Z,3.50
2017-10-19T02:11:47.144Z,3.50
2017-10-19T02:14:13.289Z,3.40
2017-10-19T02:16:39.656Z,3.50
2017-10-19T02:19:05.883Z,3.50
2017-10-19T02:21:32.257Z,3.50
2017-10-19T02:23:58.501Z,3.50
2017-10-19T02:26:24.923Z,3.50
2017-10-19T02:28:51.105Z,3.50
2017-10-19T02:31:17.532Z,3.60
2017-10-19T02:33:43.754Z,3.60
2017-10-19T02:36:10.000Z,3.60
2017-10-19T02:38:36.238Z,3.60
2017-10-19T02:41:02.356Z,3.60
2017-10-19T02:43:28.536Z,3.60
2017-10-19T02:45:55.442Z,3.60
2017-10-19T02:48:21.628Z,3.60
2017-10-19T02:50:47.847Z,3.60
2017-10-19T02:53:14.188Z,3.60
2017-10-19T02:55:40.396Z,3.60
2017-10-19T02:58:07.305Z,3.60
2017-10-19T03:00:33.518Z,3.50
2017-10-19T03:02:59.810Z,3.50
2017-10-19T03:05:26.065Z,3.60
2017-10-19T03:07:52.302Z,3.60
2017-10-19T03:10:18.393Z,3.60
2017-10-19T03:12:44.492Z,3.50
2017-10-19T03:15:10.648Z,3.50
2017-10-19T03:17:36.813Z,3.50
2017-10-19T03:20:02.955Z,3.50
2017-10-19T03:22:29.867Z,3.50
2017-10-19T03:24:56.011Z,3.50
2017-10-19T03:27:22.208Z,3.50
2017-10-19T03:29:48.617Z,3.40
2017-10-19T03:32:14.833Z,3.40
2017-10-19T03:34:41.039Z,3.40
2017-10-19T03:37:07.902Z,3.40
2017-10-19T03:39:34.077Z,3.40
2017-10-19T03:42:00.341Z,3.40
2017-10-19T03:44:26.508Z,3.30
2017-10-19T03:46:52.673Z,3.30
2017-10-19T03:49:19.651Z,3.30
2017-10-19T03:51:45.799Z,3.30
2017-10-19T03:54:12.005Z,3.30
2017-10-19T03:56:38.186Z,3.30
2017-10-19T03:59:05.117Z,3.30
2017-10-19T04:01:31.373Z,3.30
2017-10-19T04:03:58.465Z,3.40
2017-10-19T04:06:24.967Z,3.30
2017-10-19T04:08:51.140Z,3.30
2017-10-19T04:11:17.365Z,3.30
2017-10-19T04:13:43.512Z,3.30
2017-10-19T04:16:09.718Z,3.20
2017-10-19T04:18:35.949Z,3.20
2017-10-19T04:21:02.155Z,3.20
2017-10-19T04:23:28.365Z,3.30
2017-10-19T04:25:54.621Z,3.20
2017-10-19T04:28:20.847Z,3.20
2017-10-19T04:30:47.066Z,3.20
2017-10-19T04:33:13.222Z,3.20
2017-10-19T04:35:39.493Z,3.20
2017-10-19T04:38:05.613Z,3.20
2017-10-19T04:40:31.753Z,3.10
2017-10-19T04:42:57.964Z,3.10
2017-10-19T04:45:24.058Z,3.10
2017-10-19T04:47:50.244Z,3.10
2017-10-19T04:50:16.506Z,3.10
2017-10-19T04:52:42.697Z,3.00
2017-10-19T04:55:08.892Z,3.00
2017-10-19T04:57:35.090Z,3.00
2017-10-19T05:00:02.208Z,3.00
2017-10-19T05:02:28.465Z,2.90
2017-10-19T05:04:55.376Z,2.90
2017-10-19T05:07:21.683Z,2.90
2017-10-19T05:09:47.983Z,2.90
2017-10-19T05:12:14.906Z,2.90
2017-10-19T05:14:41.143Z,2.90
2017-10-19T05:17:08.070Z,2.90
2017-10-19T05:19:34.242Z,2.80
2017-10-19T05:22:00.443Z,2.80
2017-10-19T05:24:27.402Z,2.90
2017-10-19T05:26:53.524Z,2.90
2017-10-19T05:29:19.708Z,2.90
2017-10-19T05:31:47.590Z,2.80
2017-10-19T05:34:14.476Z,2.80
2017-10-19T05:36:40.620Z,2.80
2017-10-19T05:39:06.824Z,2.80
2017-10-19T05:41:33.012Z,2.80
2017-10-19T05:43:59.900Z,2.70
2017-10-19T05:46:26.216Z,2.70
2017-10-19T05:48:52.332Z,2.70
2017-10-19T05:51:18.508Z,2.70
2017-10-19T05:53:44.710Z,2.70
2017-10-19T05:56:10.858Z,2.70
2017-10-19T05:58:37.237Z,2.70
2017-10-19T06:01:03.399Z,2.70
2017-10-19T06:03:29.592Z,2.80
2017-10-19T06:05:55.810Z,2.80
2017-10-19T06:08:21.954Z,2.80
2017-10-19T06:10:48.155Z,2.70
2017-10-19T06:13:15.165Z,2.80
2017-10-19T06:15:41.378Z,2.80
2017-10-19T06:18:07.503Z,2.80
2017-10-19T06:20:33.732Z,2.80
2017-10-19T06:22:59.828Z,2.80
2017-10-19T06:25:26.024Z,2.90
2017-10-19T06:27:52.944Z,2.90
2017-10-19T06:30:19.166Z,2.90
2017-10-19T06:32:45.365Z,3.00
2017-10-19T06:35:11.562Z,3.10
2017-10-19T06:37:37.681Z,3.10
2017-10-19T06:40:03.909Z,3.20
2017-10-19T06:42:30.115Z,3.20
2017-10-19T06:44:57.100Z,3.20
2017-10-19T06:47:24.163Z,3.20
2017-10-19T06:49:50.309Z,3.30
2017-10-19T06:52:16.597Z,3.40
2017-10-19T06:54:43.219Z,3.40
2017-10-19T06:57:09.551Z,3.50
2017-10-19T06:59:35.800Z,3.60
2017-10-19T07:02:02.009Z,3.60
2017-10-19T07:04:28.352Z,3.70
2017-10-19T07:06:54.527Z,3.70
2017-10-19T07:09:20.929Z,3.80
2017-10-19T07:11:47.107Z,3.90
2017-10-19T07:14:14.102Z,4.00
2017-10-19T07:16:40.347Z,4.00
2017-10-19T07:19:06.660Z,4.10
2017-10-19T07:21:32.990Z,4.30
2017-10-19T07:23:59.152Z,4.40
2017-10-19T07:26:26.382Z,4.70
2017-10-19T07:28:53.300Z,4.90
2017-10-19T07:31:19.521Z,4.90
2017-10-19T07:33:45.843Z,5.00
2017-10-19T07:36:11.971Z,5.20
2017-10-19T07:38:38.186Z,5.40
2017-10-19T07:41:04.488Z,5.60
2017-10-19T07:43:30.609Z,5.90
2017-10-19T07:45:57.542Z,6.30
2017-10-19T07:48:24.526Z,6.60
2017-10-19T07:50:50.904Z,6.50
2017-10-19T07:53:17.077Z,6.80
2017-10-19T07:55:43.387Z,7.10
2017-10-19T07:58:09.522Z,7.30
2017-10-19T08:00:35.830Z,7.60
2017-10-19T08:03:02.768Z,8.20
2017-10-19T08:05:29.788Z,8.40
2017-10-19T08:07:56.112Z,8.40
2017-10-19T08:10:22.318Z,8.70
2017-10-19T08:12:48.646Z,8.90
2017-10-19T08:15:15.071Z,9.00
2017-10-19T08:17:41.204Z,9.20
2017-10-19T08:20:07.577Z,9.40
2017-10-19T08:22:34.523Z,9.80
2017-10-19T08:25:01.372Z,10.00
2017-10-19T08:27:28.376Z,10.30
2017-10-19T08:29:54.580Z,10.20
2017-10-19T08:32:20.677Z,10.50
2017-10-19T08:34:48.727Z,10.70
2017-10-19T08:37:14.956Z,11.00
2017-10-19T08:39:41.041Z,11.20
2017-10-19T08:42:07.155Z,11.40
2017-10-19T08:44:33.350Z,11.60
2017-10-19T08:47:00.265Z,12.10
2017-10-19T08:49:26.549Z,12.10
2017-10-19T08:51:52.792Z,12.30
2017-10-19T08:54:18.943Z,12.60
2017-10-19T08:56:45.925Z,13.00
2017-10-19T08:59:12.144Z,13.00
2017-10-19T09:01:40.030Z,13.40
2017-10-19T09:04:06.220Z,13.40
2017-10-19T09:06:33.294Z,14.00
2017-10-19T09:09:00.490Z,14.00
2017-10-19T09:11:26.706Z,14.40
2017-10-19T09:13:52.960Z,14.60
2017-10-19T09:16:19.150Z,14.90
2017-10-19T09:18:45.418Z,15.10
2017-10-19T09:21:11.652Z,15.30
2017-10-19T09:23:37.881Z,15.50
2017-10-19T09:26:04.878Z,15.80
2017-10-19T09:28:31.154Z,15.80
2017-10-19T09:30:58.209Z,16.30
2017-10-19T09:33:25.096Z,16.50
2017-10-19T09:35:51.403Z,16.50
2017-10-19T09:38:17.675Z,16.70
2017-10-19T09:40:43.943Z,16.90
2017-10-19T09:43:10.075Z,17.20
2017-10-19T09:45:38.490Z,17.30
2017-10-19T09:48:04.841Z,17.50
2017-10-19T09:50:31.178Z,17.70
2017-10-19T09:52:57.471Z,17.90
2017-10-19T09:55:23.800Z,18.00
2017-10-19T09:57:49.975Z,18.10
2017-10-19T10:00:16.856Z,18.40
2017-10-19T10:02:43.055Z,18.30
2017-10-19T10:05:09.239Z,18.50
2017-10-19T10:07:35.496Z,18.70
2017-10-19T10:10:02.436Z,19.00
2017-10-19T10:12:29.600Z,19.10
2017-10-19T10:14:56.359Z,19.10
2017-10-19T10:17:22.550Z,19.10
2017-10-19T10:19:48.664Z,19.30
2017-10-19T10:22:15.223Z,19.30
2017-10-19T10:24:42.159Z,19.50
2017-10-19T10:27:09.040Z,19.50
2017-10-19T10:29:35.372Z,19.50
2017-10-19T10:32:01.541Z,19.50
2017-10-19T10:34:27.721Z,19.50
2017-10-19T10:36:53.918Z,19.60
2017-10-19T10:39:20.887Z,19.70
2017-10-19T10:41:47.200Z,19.70
2017-10-19T10:44:13.615Z,19.70
2017-10-19T10:46:40.515Z,19.60
2017-10-19T10:49:06.630Z,19.60
2017-10-19T10:51:32.796Z,19.60
2017-10-19T10:53:59.877Z,19.60
2017-10-19T10:56:26.069Z,19.50
2017-10-19T10:58:52.347Z,19.60
2017-10-19T11:01:18.439Z,19.60
2017-10-19T11:03:45.378Z,19.70
2017-10-19T11:06:12.222Z,19.80
2017-10-19T11:08:39.140Z,19.80
2017-10-19T11:11:06.032Z,19.90
2017-10-19T11:13:32.137Z,19.90
2017-10-19T11:15:59.062Z,20.10
2017-10-19T11:18:25.173Z,20.00
2017-10-19T11:20:51.403Z,20.10
2017-10-19T11:23:17.573Z,20.10
2017-10-19T11:25:43.756Z,20.20
2017-10-19T11:28:10.003Z,20.20
2017-10-19T11:30:36.894Z,20.30
2017-10-19T11:33:03.123Z,20.30
2017-10-19T11:35:29.240Z,20.30
2017-10-19T11:37:55.375Z,20.30
2017-10-19T11:40:21.769Z,20.30
2017-10-19T11:42:48.157Z,20.40
2017-10-19T11:45:14.362Z,20.40
2017-10-19T11:47:40.484Z,20.40
2017-10-19T11:50:06.684Z,20.40
2017-10-19T11:52:32.843Z,20.30
2017-10-19T11:54:59.017Z,20.30
2017-10-19T11:57:25.947Z,20.30
2017-10-19T11:59:52.070Z,20.20
2017-10-19T12:02:18.246Z,20.30
2017-10-19T12:04:44.480Z,20.30
2017-10-19T12:07:10.555Z,20.30
2017-10-19T12:09:36.713Z,20.30
2017-10-19T12:12:02.822Z,20.40
2017-10-19T12:14:29.171Z,20.40
2017-10-19T12:16:55.481Z,20.50
2017-10-19T12:19:22.367Z,20.40
2017-10-19T12:21:48.524Z,20.40
2017-10-19T12:24:14.659Z,20.50
2017-10-19T12:26:40.790Z,20.60
2017-10-19T12:29:07.663Z,20.70
2017-10-19T12:31:33.885Z,20.70
2017-10-19T12:34:00.056Z,20.70
2017-10-19T12:36:26.324Z,20.70
2017-10-19T12:38:53.198Z,20.60
2017-10-19T12:41:19.494Z,20.60
2017-10-19T12:43:46.366Z,20.70
2017-10-19T12:46:12.530Z,20.70
2017-10-19T12:48:38.706Z,20.80
2017-10-19T12:51:05.004Z,20.80
2017-10-19T12:53:31.182Z,20.80
2017-10-19T12:55:57.337Z,20.80
2017-10-19T12:58:23.736Z,20.80
2017-10-19T13:00:49.980Z,20.90
2017-10-19T13:03:16.142Z,20.90
2017-10-19T13:05:42.282Z,20.90
2017-10-19T13:08:08.514Z,20.80
2017-10-19T13:10:35.435Z,20.50
2017-10-19T13:13:01.625Z,20.50
2017-10-19T13:15:27.862Z,20.30
2017-10-19T13:17:54.028Z,20.30
2017-10-19T13:20:21.114Z,19.90
2017-10-19T13:22:48.356Z,19.90
2017-10-19T13:25:14.765Z,19.80
2017-10-19T13:27:41.108Z,19.70
2017-10-19T13:30:07.287Z,19.60
2017-10-19T13:32:33.567Z,19.60
2017-10-19T13:34:59.721Z,19.60
2017-10-19T13:37:25.786Z,19.70
2017-10-19T13:39:51.972Z,19.80
2017-10-19T13:42:18.065Z,19.70
2017-10-19T13:44:44.244Z,19.60
2017-10-19T13:47:10.357Z,19.50
2017-10-19T13:49:36.501Z,19.50
2017-10-19T13:52:02.685Z,19.40
2017-10-19T13:54:28.835Z,19.40
2017-10-19T13:56:54.945Z,19.30
2017-10-19T13:59:21.248Z,19.20
2017-10-19T14:01:47.580Z,19.10
2017-10-19T14:04:13.823Z,19.10
2017-10-19T14:06:40.069Z,19.10
2017-10-19T14:09:06.355Z,19.00
2017-10-19T14:11:32.492Z,18.90
2017-10-19T14:13:58.651Z,18.90
2017-10-19T14:16:25.196Z,18.90
2017-10-19T14:18:51.372Z,18.80
2017-10-19T14:21:17.637Z,18.80
2017-10-19T14:23:43.800Z,18.80
2017-10-19T14:26:10.723Z,18.80
2017-10-19T14:28:36.932Z,18.70
2017-10-19T14:31:03.234Z,18.70
2017-10-19T14:33:29.444Z,18.70
2017-10-19T14:35:56.302Z,18.60
2017-10-19T14:38:22.551Z,18.70
2017-10-19T14:40:48.779Z,18.60
2017-10-19T14:43:14.999Z,18.60
2017-10-19T14:45:41.163Z,18.60
2017-10-19T14:48:07.386Z,18.50
2017-10-19T14:50:33.630Z,18.40
2017-10-19T14:52:59.770Z,18.30
2017-10-19T14:55:26.674Z,18.20
2017-10-19T14:57:53.788Z,18.20
2017-10-19T15:00:20.164Z,18.10
2017-10-19T15:02:46.477Z,18.00
2017-10-19T15:05:12.656Z,18.00
2017-10-19T15:07:38.812Z,17.90
2017-10-19T15:10:04.900Z,17.80
2017-10-19T15:12:31.859Z,17.60
2017-10-19T15:14:57.989Z,17.60
2017-10-19T15:17:24.251Z,17.60
2017-10-19T15:19:50.368Z,17.50
2017-10-19T15:22:16.509Z,17.40
2017-10-19T15:24:42.747Z,17.40
2017-10-19T15:27:08.842Z,17.20
2017-10-19T15:29:35.055Z,17.20
2017-10-19T15:32:01.430Z,17.10
2017-10-19T15:34:27.593Z,17.10
2017-10-19T15:36:53.774Z,17.00
2017-10-19T15:39:20.030Z,17.00
2017-10-19T15:41:46.908Z,16.60
2017-10-19T15:44:13.513Z,16.60
2017-10-19T15:46:40.351Z,16.30
2017-10-19T15:49:07.276Z,16.10
2017-10-19T15:51:33.524Z,16.00
2017-10-19T15:54:00.443Z,15.70
2017-10-19T15:56:26.574Z,15.60
2017-10-19T15:58:52.852Z,15.50
2017-10-19T16:01:19.033Z,15.20
2017-10-19T16:03:45.986Z,14.90
2017-10-19T16:06:12.843Z,14.70
2017-10-19T16:08:38.931Z,14.70
2017-10-19T16:11:05.109Z,14.50
2017-10-19T16:13:31.227Z,14.30
2017-10-19T16:15:57.348Z,14.10
2017-10-19T16:18:23.619Z,14.00
2017-10-19T16:20:49.926Z,13.80
2017-10-19T16:23:16.201Z,13.70
2017-10-19T16:25:42.453Z,13.50
2017-10-19T16:28:08.733Z,13.30
2017-10-19T16:30:34.943Z,13.20
2017-10-19T16:33:01.082Z,13.00
2017-10-19T16:35:27.271Z,12.80
2017-10-19T16:37:53.565Z,12.70
2017-10-19T16:40:20.432Z,12.50
2017-10-19T16:42:47.410Z,12.30
2017-10-19T16:45:13.704Z,12.30
2017-10-19T16:47:40.586Z,12.10
2017-10-19T16:50:06.778Z,12.20
2017-10-19T16:52:33.661Z,12.00
2017-10-19T16:54:59.850Z,11.90
2017-10-19T16:57:26.131Z,11.80
2017-10-19T16:59:52.282Z,11.70
2017-10-19T17:02:18.436Z,11.60
2017-10-19T17:04:44.634Z,11.50
2017-10-19T17:07:11.476Z,11.40
2017-10-19T17:09:37.618Z,11.40
2017-10-19T17:12:04.548Z,11.20
2017-10-19T17:14:31.464Z,11.10
2017-10-19T17:16:57.626Z,11.10
2017-10-19T17:19:24.554Z,11.00
2017-10-19T17:21:51.536Z,10.90
2017-10-19T17:24:17.890Z,10.90
2017-10-19T17:26:43.998Z,10.80
2017-10-19T17:29:10.511Z,10.70
2017-10-19T17:31:36.709Z,10.60
2017-10-19T17:34:03.605Z,10.40
2017-10-19T17:36:30.130Z,10.40
2017-10-19T17:38:56.338Z,10.30
2017-10-19T17:41:22.708Z,10.30
2017-10-19T17:43:48.924Z,10.20
2017-10-19T17:46:15.126Z,10.10
2017-10-19T17:48:42.070Z,10.00
2017-10-19T17:51:08.233Z,10.00
2017-10-19T17:53:34.470Z,9.90
2017-10-19T17:56:00.623Z,9.90
2017-10-19T17:58:27.577Z,9.80
2017-10-19T18:00:54.519Z,9.70
2017-10-19T18:03:21.573Z,9.60
2017-10-19T18:05:48.565Z,9.60
2017-10-19T18:08:15.480Z,9.50
2017-10-19T18:10:41.648Z,9.50
2017-10-19T18:13:07.887Z,9.50
2017-10-19T18:15:34.093Z,9.50
2017-10-19T18:18:01.049Z,9.40
2017-10-19T18:20:27.202Z,9.40
2017-10-19T18:22:54.143Z,9.40
2017-10-19T18:25:21.138Z,9.40
2017-10-19T18:27:47.863Z,9.40
2017-10-19T18:30:14.229Z,9.40
2017-10-19T18:32:41.399Z,9.30
2017-10-19T18:35:07.561Z,9.30
2017-10-19T18:37:33.709Z,9.30
2017-10-19T18:39:59.883Z,9.30
2017-10-19T18:42:26.825Z,9.20
2017-10-19T18:44:52.977Z,9.20
2017-10-19T18:47:20.215Z,9.20
2017-10-19T18:49:47.111Z,9.10
2017-10-19T18:52:13.328Z,9.10
2017-10-19T18:54:39.627Z,9.10
2017-10-19T18:57:05.797Z,9.00
2017-10-19T18:59:32.048Z,9.00
2017-10-19T19:01:58.254Z,8.90
2017-10-19T19:04:24.404Z,8.90
2017-10-19T19:06:50.826Z,8.80
2017-10-19T19:09:17.078Z,8.80
2017-10-19T19:11:43.260Z,8.70
2017-10-19T19:14:09.397Z,8.70
2017-10-19T19:16:35.710Z,8.70
2017-10-19T19:19:01.912Z,8.70
2017-10-19T19:21:28.065Z,8.70
2017-10-19T19:23:54.748Z,8.70
2017-10-19T19:26:21.738Z,8.70
2017-10-19T19:28:49.121Z,8.70
2017-10-19T19:31:15.435Z,8.70
2017-10-19T19:33:41.636Z,8.70
2017-10-19T19:36:07.936Z,8.70
2017-10-19T19:38:34.887Z,8.80
2017-10-19T19:41:02.003Z,8.70
2017-10-19T19:43:28.207Z,8.80
2017-10-19T19:45:54.387Z,8.80
2017-10-19T19:48:20.617Z,8.90
2017-10-19T19:50:46.788Z,8.90
2017-10-19T19:53:13.025Z,8.90
2017-10-19T19:55:39.352Z,8.90
2017-10-19T19:58:05.601Z,8.90
2017-10-19T20:00:31.822Z,8.90
2017-10-19T20:02:57.988Z,9.00
2017-10-19T20:05:24.279Z,9.10
2017-10-19T20:07:51.225Z,9.20
2017-10-19T20:10:17.375Z,9.20
2017-10-19T20:12:43.511Z,9.20
2017-10-19T20:15:09.841Z,9.30
2017-10-19T20:17:35.943Z,9.40
2017-10-19T20:20:02.798Z,9.40
2017-10-19T20:22:28.935Z,9.40
2017-10-19T20:24:55.123Z,9.40
2017-10-19T20:27:21.301Z,9.40
2017-10-19T20:29:47.451Z,9.50
2017-10-19T20:32:13.571Z,9.60
2017-10-19T20:34:39.781Z,9.60
2017-10-19T20:37:05.991Z,9.60
2017-10-19T20:39:32.205Z,9.70
2017-10-19T20:41:58.416Z,9.70
2017-10-19T20:44:25.383Z,9.90
2017-10-19T20:46:51.559Z,9.80
2017-10-19T20:49:17.729Z,9.90
2017-10-19T20:51:43.859Z,9.90
2017-10-19T20:54:10.060Z,9.90
2017-10-19T20:56:37.448Z,9.90
2017-10-19T20:59:03.652Z,9.90
2017-10-19T21:01:29.908Z,9.90
2017-10-19T21:03:56.012Z,9.90
2017-10-19T21:06:22.306Z,9.90
2017-10-19T21:08:48.596Z,9.90
2017-10-19T21:11:15.792Z,9.90
2017-10-19T21:13:42.726Z,10.00
2017-10-19T21:16:08.903Z,10.00
2017-10-19T21:18:35.080Z,10.00
2017-10-19T21:21:01.761Z,10.00
2017-10-19T21:23:27.928Z,10.00
2017-10-19T21:25:54.034Z,10.00
2017-10-19T21:28:20.302Z,10.10
2017-10-19T21:30:46.396Z,10.10
2017-10-19T21:33:12.556Z,10.20
2017-10-19T21:35:38.814Z,10.20
2017-10-19T21:38:05.123Z,10.20
2017-10-19T21:40:32.152Z,10.20
2017-10-19T21:42:59.239Z,10.20
2017-10-19T21:45:25.328Z,10.20
2017-10-19T21:47:51.537Z,10.20
2017-10-19T21:50:17.677Z,10.20
2017-10-19T21:52:44.594Z,10.30
2017-10-19T21:55:11.771Z,10.20
2017-10-19T21:57:38.736Z,10.30
2017-10-19T22:00:05.680Z,10.30
2017-10-19T22:02:32.357Z,10.30
2017-10-19T22:04:58.759Z,10.40
2017-10-19T22:07:24.943Z,10.50
2017-10-19T22:09:51.369Z,10.60
2017-10-19T22:12:18.304Z,10.60
2017-10-19T22:14:44.521Z,10.60
2017-10-19T22:17:11.194Z,10.70
2017-10-19T22:19:37.411Z,10.80
2017-10-19T22:22:04.663Z,10.90
2017-10-19T22:24:30.870Z,11.00
2017-10-19T22:26:56.994Z,11.10
2017-10-19T22:29:23.153Z,11.10
2017-10-19T22:31:50.113Z,11.10
2017-10-19T22:34:16.378Z,11.10
2017-10-19T22:36:42.478Z,11.20
2017-10-19T22:39:08.676Z,11.20
2017-10-19T22:41:35.627Z,11.30
2017-10-19T22:44:02.533Z,11.20
2017-10-19T22:46:28.694Z,11.20
2017-10-19T22:48:55.666Z,11.20
2017-10-19T22:51:21.856Z,11.10
2017-10-19T22:53:48.012Z,11.10
2017-10-19T22:56:14.195Z,11.00
2017-10-19T22:58:40.333Z,11.00
2017-10-19T23:01:07.322Z,10.80
2017-10-19T23:03:33.490Z,10.80
2017-10-19T23:05:59.715Z,10.60
2017-10-19T23:08:25.859Z,10.40
2017-10-19T23:10:52.721Z,10.20
2017-10-19T23:13:18.889Z,10.20
2017-10-19T23:15:45.025Z,10.20
2017-10-19T23:18:11.247Z,10.10
2017-10-19T23:20:37.465Z,10.00
2017-10-19T23:23:03.709Z,9.90
2017-10-19T23:25:29.866Z,9.80
2017-10-19T23:27:56.758Z,9.70
2017-10-19T23:30:22.986Z,9.60
2017-10-19T23:32:49.136Z,9.50
2017-10-19T23:35:15.316Z,9.50
2017-10-19T23:37:41.458Z,9.40
2017-10-19T23:40:07.565Z,9.40
2017-10-19T23:42:33.759Z,9.30
2017-10-19T23:45:00.700Z,9.20
2017-10-19T23:47:27.618Z,9.10
2017-10-19T23:49:53.979Z,9.10
2017-10-19T23:52:20.912Z,9.00
2017-10-19T23:54:47.842Z,8.90
2017-10-19T23:57:13.992Z,8.90
2017-10-19T23:59:40.821Z,8.80
